sensor_id;sensor_type;location;lat;lon;timestamp;pressure;altitude;pressure_sealevel;temperature;humidity
11017;BME280;54687;50.800;6.772;2022-11-10T00:00:16;61078.25;;;-144.06;60.53
11017;BME280;54687;50.800;6.772;2022-11-10T00:02:43;61055.19;;;-144.06;60.48
11017;BME280;54687;50.800;6.772;2022-11-10T00:05:12;61080.34;;;-144.06;60.70
11017;BME280;54687;50.800;6.772;2022-11-10T00:07:39;61080.34;;;-144.06;61.02
11017;BME280;54687;50.800;6.772;2022-11-10T00:10:07;61084.53;;;-144.06;60.95
11017;BME280;54687;50.800;6.772;2022-11-10T00:12:34;61076.13;;;-144.06;60.95
11017;BME280;54687;50.800;6.772;2022-11-10T00:15:01;61032.13;;;-144.06;60.80
11017;BME280;54687;50.800;6.772;2022-11-10T00:17:45;61038.41;;;-144.06;60.92
11017;BME280;54687;50.800;6.772;2022-11-10T00:20:15;61051.00;;;-144.06;60.82
11017;BME280;54687;50.800;6.772;2022-11-10T00:22:42;61051.00;;;-144.06;61.06
11017;BME280;54687;50.800;6.772;2022-11-10T00:25:09;61071.94;;;-144.06;61.08
11017;BME280;54687;50.800;6.772;2022-11-10T00:27:37;61097.09;;;-144.06;61.46
11017;BME280;54687;50.800;6.772;2022-11-10T00:30:04;61076.13;;;-144.06;61.44
11017;BME280;54687;50.800;6.772;2022-11-10T00:32:31;61105.50;;;-144.06;61.44
11017;BME280;54687;50.800;6.772;2022-11-10T00:34:58;61046.78;;;-144.06;61.48
11017;BME280;54687;50.800;6.772;2022-11-10T00:37:26;61084.53;;;-144.06;61.83
11017;BME280;54687;50.800;6.772;2022-11-10T00:39:53;61071.94;;;-144.06;61.69
11017;BME280;54687;50.800;6.772;2022-11-10T00:42:19;61097.09;;;-144.06;61.95
11017;BME280;54687;50.800;6.772;2022-11-10T00:44:46;61095.00;;;-144.06;62.08
11017;BME280;54687;50.800;6.772;2022-11-10T00:47:12;61097.09;;;-144.06;62.22
11017;BME280;54687;50.800;6.772;2022-11-10T00:49:39;61067.75;;;-144.06;62.19
11017;BME280;54687;50.800;6.772;2022-11-10T00:52:05;61074.03;;;-144.06;62.20
11017;BME280;54687;50.800;6.772;2022-11-10T00:54:33;61038.41;;;-144.06;62.32
11017;BME280;54687;50.800;6.772;2022-11-10T00:57:00;61071.94;;;-144.06;62.38
11017;BME280;54687;50.800;6.772;2022-11-10T00:59:27;61063.56;;;-144.06;62.40
11017;BME280;54687;50.800;6.772;2022-11-10T01:01:53;61113.88;;;-144.06;62.45
11017;BME280;54687;50.800;6.772;2022-11-10T01:04:20;61071.94;;;-144.06;62.61
11017;BME280;54687;50.800;6.772;2022-11-10T01:06:47;61105.50;;;-144.06;62.49
11017;BME280;54687;50.800;6.772;2022-11-10T01:09:13;61092.91;;;-144.06;62.33
11017;BME280;54687;50.800;6.772;2022-11-10T01:11:42;61088.72;;;-144.06;62.27
11017;BME280;54687;50.800;6.772;2022-11-10T01:14:08;61059.38;;;-144.06;62.57
11017;BME280;54687;50.800;6.772;2022-11-10T01:16:35;61059.38;;;-144.06;62.50
11017;BME280;54687;50.800;6.772;2022-11-10T01:19:03;61088.72;;;-144.06;62.54
11017;BME280;54687;50.800;6.772;2022-11-10T01:21:30;61101.28;;;-144.06;62.82
11017;BME280;54687;50.800;6.772;2022-11-10T01:23:56;61155.81;;;-144.06;62.76
11017;BME280;54687;50.800;6.772;2022-11-10T01:26:23;61067.75;;;-144.06;62.91
11017;BME280;54687;50.800;6.772;2022-11-10T01:28:51;61105.50;;;-144.06;62.83
11017;BME280;54687;50.800;6.772;2022-11-10T01:31:19;61046.78;;;-144.06;62.88
11017;BME280;54687;50.800;6.772;2022-11-10T01:33:46;61057.28;;;-144.06;63.06
11017;BME280;54687;50.800;6.772;2022-11-10T01:36:13;61101.28;;;-144.06;63.05
11017;BME280;54687;50.800;6.772;2022-11-10T01:38:41;61055.19;;;-144.06;63.50
11017;BME280;54687;50.800;6.772;2022-11-10T01:41:10;61109.69;;;-144.06;63.31
11017;BME280;54687;50.800;6.772;2022-11-10T01:43:37;61097.09;;;-144.06;63.42
11017;BME280;54687;50.800;6.772;2022-11-10T01:46:05;61118.06;;;-144.06;63.67
11017;BME280;54687;50.800;6.772;2022-11-10T01:48:35;61088.72;;;-144.06;63.80
11017;BME280;54687;50.800;6.772;2022-11-10T01:51:05;61086.63;;;-144.06;63.62
11017;BME280;54687;50.800;6.772;2022-11-10T01:53:36;61103.38;;;-144.06;63.74
11017;BME280;54687;50.800;6.772;2022-11-10T01:56:04;61088.72;;;-144.06;63.80
11017;BME280;54687;50.800;6.772;2022-11-10T01:58:34;61076.13;;;-144.06;64.16
11017;BME280;54687;50.800;6.772;2022-11-10T02:01:06;61109.69;;;-144.06;63.98
11017;BME280;54687;50.800;6.772;2022-11-10T02:03:38;61090.81;;;-144.06;63.94
11017;BME280;54687;50.800;6.772;2022-11-10T02:06:06;61105.50;;;-144.06;64.20
11017;BME280;54687;50.800;6.772;2022-11-10T02:08:33;61042.59;;;-144.06;64.11
11017;BME280;54687;50.800;6.772;2022-11-10T02:11:00;61055.19;;;-144.06;64.05
11017;BME280;54687;50.800;6.772;2022-11-10T02:13:27;61067.75;;;-144.06;63.90
11017;BME280;54687;50.800;6.772;2022-11-10T02:15:54;61071.94;;;-144.06;64.10
11017;BME280;54687;50.800;6.772;2022-11-10T02:18:22;61145.31;;;-144.06;63.93
11017;BME280;54687;50.800;6.772;2022-11-10T02:20:50;61113.88;;;-144.06;63.86
11017;BME280;54687;50.800;6.772;2022-11-10T02:23:42;61113.88;;;-144.06;64.26
11017;BME280;54687;50.800;6.772;2022-11-10T02:26:09;61086.63;;;-144.06;64.18
11017;BME280;54687;50.800;6.772;2022-11-10T02:28:36;61101.28;;;-144.06;64.34
11017;BME280;54687;50.800;6.772;2022-11-10T02:31:04;61084.53;;;-144.06;64.30
11017;BME280;54687;50.800;6.772;2022-11-10T02:33:31;61122.25;;;-144.06;64.43
11017;BME280;54687;50.800;6.772;2022-11-10T02:35:59;61141.13;;;-144.06;64.32
11017;BME280;54687;50.800;6.772;2022-11-10T02:38:25;61080.34;;;-144.06;64.55
11017;BME280;54687;50.800;6.772;2022-11-10T02:40:52;61126.44;;;-144.06;64.70
11017;BME280;54687;50.800;6.772;2022-11-10T02:43:19;61122.25;;;-144.06;64.75
11017;BME280;54687;50.800;6.772;2022-11-10T02:45:45;61076.13;;;-144.06;64.86
11017;BME280;54687;50.800;6.772;2022-11-10T02:48:13;61097.09;;;-144.06;64.93
11017;BME280;54687;50.800;6.772;2022-11-10T02:50:41;61124.34;;;-144.06;64.82
11017;BME280;54687;50.800;6.772;2022-11-10T02:53:09;61071.94;;;-144.06;64.85
11017;BME280;54687;50.800;6.772;2022-11-10T02:55:36;61076.13;;;-144.06;64.94
11017;BME280;54687;50.800;6.772;2022-11-10T02:58:02;61088.72;;;-144.06;65.04
11017;BME280;54687;50.800;6.772;2022-11-10T03:00:30;61132.75;;;-144.06;64.87
11017;BME280;54687;50.800;6.772;2022-11-10T03:02:57;61113.88;;;-144.06;64.88
11017;BME280;54687;50.800;6.772;2022-11-10T03:05:23;61126.44;;;-144.06;65.09
11017;BME280;54687;50.800;6.772;2022-11-10T03:07:54;61109.69;;;-144.06;64.94
11017;BME280;54687;50.800;6.772;2022-11-10T03:10:23;61109.69;;;-144.06;64.89
11017;BME280;54687;50.800;6.772;2022-11-10T03:12:52;61090.81;;;-144.06;64.98
11017;BME280;54687;50.800;6.772;2022-11-10T03:15:20;61088.72;;;-144.06;64.89
11017;BME280;54687;50.800;6.772;2022-11-10T03:17:46;61134.84;;;-144.06;65.08
11017;BME280;54687;50.800;6.772;2022-11-10T03:20:13;61111.78;;;-144.06;65.13
11017;BME280;54687;50.800;6.772;2022-11-10T03:22:40;61147.41;;;-144.06;65.19
11017;BME280;54687;50.800;6.772;2022-11-10T03:25:08;61092.91;;;-144.06;65.06
11017;BME280;54687;50.800;6.772;2022-11-10T03:27:36;61120.16;;;-144.06;65.23
11017;BME280;54687;50.800;6.772;2022-11-10T03:30:05;61103.38;;;-144.06;65.03
11017;BME280;54687;50.800;6.772;2022-11-10T03:32:32;61130.66;;;-144.06;65.10
11017;BME280;54687;50.800;6.772;2022-11-10T03:34:59;61130.66;;;-144.06;65.15
11017;BME280;54687;50.800;6.772;2022-11-10T03:37:25;61113.88;;;-144.06;65.11
11017;BME280;54687;50.800;6.772;2022-11-10T03:39:52;61084.53;;;-144.06;65.22
11017;BME280;54687;50.800;6.772;2022-11-10T03:42:19;61105.50;;;-144.06;65.09
11017;BME280;54687;50.800;6.772;2022-11-10T03:44:47;61124.34;;;-144.06;64.92
11017;BME280;54687;50.800;6.772;2022-11-10T03:47:13;61105.50;;;-144.06;65.07
11017;BME280;54687;50.800;6.772;2022-11-10T03:49:40;61107.59;;;-144.06;64.76
11017;BME280;54687;50.800;6.772;2022-11-10T03:52:07;61086.63;;;-144.06;64.75
11017;BME280;54687;50.800;6.772;2022-11-10T03:54:33;61124.34;;;-144.06;64.67
11017;BME280;54687;50.800;6.772;2022-11-10T03:57:00;61113.88;;;-144.06;64.42
11017;BME280;54687;50.800;6.772;2022-11-10T03:59:27;61080.34;;;-144.06;64.65
11017;BME280;54687;50.800;6.772;2022-11-10T04:01:55;61082.44;;;-144.06;64.74
11017;BME280;54687;50.800;6.772;2022-11-10T04:04:22;61101.28;;;-144.06;64.67
11017;BME280;54687;50.800;6.772;2022-11-10T04:07:11;61111.78;;;-144.06;64.72
11017;BME280;54687;50.800;6.772;2022-11-10T04:09:55;61109.69;;;-144.06;64.73
11017;BME280;54687;50.800;6.772;2022-11-10T04:12:22;61113.88;;;-144.06;64.89
11017;BME280;54687;50.800;6.772;2022-11-10T04:15:07;61086.63;;;-144.06;65.05
11017;BME280;54687;50.800;6.772;2022-11-10T04:17:54;61130.66;;;-144.06;65.33
11017;BME280;54687;50.800;6.772;2022-11-10T04:20:40;61122.25;;;-144.06;65.26
11017;BME280;54687;50.800;6.772;2022-11-10T04:23:07;61092.91;;;-144.06;65.63
11017;BME280;54687;50.800;6.772;2022-11-10T04:25:56;61126.44;;;-144.06;65.71
11017;BME280;54687;50.800;6.772;2022-11-10T04:28:41;61097.09;;;-144.06;65.67
11017;BME280;54687;50.800;6.772;2022-11-10T04:31:08;61080.34;;;-144.06;65.82
11017;BME280;54687;50.800;6.772;2022-11-10T04:33:36;61101.28;;;-144.06;66.12
11017;BME280;54687;50.800;6.772;2022-11-10T04:36:04;61143.22;;;-144.06;66.21
11017;BME280;54687;50.800;6.772;2022-11-10T04:38:31;61130.66;;;-144.06;66.47
11017;BME280;54687;50.800;6.772;2022-11-10T04:40:58;61084.53;;;-144.06;66.61
11017;BME280;54687;50.800;6.772;2022-11-10T04:43:25;61164.19;;;-144.06;66.74
11017;BME280;54687;50.800;6.772;2022-11-10T04:45:51;61086.63;;;-144.06;66.80
11017;BME280;54687;50.800;6.772;2022-11-10T04:48:18;61080.34;;;-144.06;67.11
11017;BME280;54687;50.800;6.772;2022-11-10T04:50:46;61101.28;;;-144.06;67.19
11017;BME280;54687;50.800;6.772;2022-11-10T04:53:14;61074.03;;;-144.06;67.27
11017;BME280;54687;50.800;6.772;2022-11-10T04:55:41;61105.50;;;-144.06;67.14
11017;BME280;54687;50.800;6.772;2022-11-10T04:58:08;61118.06;;;-144.06;67.46
11017;BME280;54687;50.800;6.772;2022-11-10T05:00:36;61067.75;;;-144.06;67.49
11017;BME280;54687;50.800;6.772;2022-11-10T05:03:04;61099.19;;;-144.06;67.69
11017;BME280;54687;50.800;6.772;2022-11-10T05:05:31;61092.91;;;-144.06;67.57
11017;BME280;54687;50.800;6.772;2022-11-10T05:08:00;61076.13;;;-144.06;67.42
11017;BME280;54687;50.800;6.772;2022-11-10T05:10:26;61109.69;;;-144.06;67.52
11017;BME280;54687;50.800;6.772;2022-11-10T05:12:53;61080.34;;;-144.06;67.71
11017;BME280;54687;50.800;6.772;2022-11-10T05:15:20;61157.91;;;-144.06;67.36
11017;BME280;54687;50.800;6.772;2022-11-10T05:17:47;61113.88;;;-144.06;67.59
11017;BME280;54687;50.800;6.772;2022-11-10T05:20:15;61126.44;;;-144.06;67.63
11017;BME280;54687;50.800;6.772;2022-11-10T05:22:43;61130.66;;;-144.06;67.34
11017;BME280;54687;50.800;6.772;2022-11-10T05:25:11;61122.25;;;-144.06;67.37
11017;BME280;54687;50.800;6.772;2022-11-10T05:27:38;61139.03;;;-144.06;67.42
11017;BME280;54687;50.800;6.772;2022-11-10T05:30:06;61120.16;;;-144.06;67.40
11017;BME280;54687;50.800;6.772;2022-11-10T05:32:33;61084.53;;;-144.06;67.34
11017;BME280;54687;50.800;6.772;2022-11-10T05:34:59;61101.28;;;-144.06;67.38
11017;BME280;54687;50.800;6.772;2022-11-10T05:37:26;61113.88;;;-144.06;67.37
11017;BME280;54687;50.800;6.772;2022-11-10T05:39:52;61126.44;;;-144.06;67.35
11017;BME280;54687;50.800;6.772;2022-11-10T05:42:21;61130.66;;;-144.06;67.34
11017;BME280;54687;50.800;6.772;2022-11-10T05:44:47;61126.44;;;-144.06;67.41
11017;BME280;54687;50.800;6.772;2022-11-10T05:47:14;61113.88;;;-144.06;67.32
11017;BME280;54687;50.800;6.772;2022-11-10T05:49:40;61113.88;;;-144.06;67.36
11017;BME280;54687;50.800;6.772;2022-11-10T05:52:07;61162.09;;;-144.06;67.59
11017;BME280;54687;50.800;6.772;2022-11-10T05:54:33;61143.22;;;-144.06;67.52
11017;BME280;54687;50.800;6.772;2022-11-10T05:57:03;61118.06;;;-144.06;67.78
11017;BME280;54687;50.800;6.772;2022-11-10T05:59:31;61141.13;;;-144.06;67.72
11017;BME280;54687;50.800;6.772;2022-11-10T06:01:58;61130.66;;;-144.06;67.62
11017;BME280;54687;50.800;6.772;2022-11-10T06:04:24;61099.19;;;-144.06;67.63
11017;BME280;54687;50.800;6.772;2022-11-10T06:06:51;61113.88;;;-144.06;67.98
11017;BME280;54687;50.800;6.772;2022-11-10T06:09:17;61101.28;;;-144.06;68.15
11017;BME280;54687;50.800;6.772;2022-11-10T06:11:44;61099.19;;;-144.06;68.35
11017;BME280;54687;50.800;6.772;2022-11-10T06:14:10;61136.94;;;-144.06;68.55
11017;BME280;54687;50.800;6.772;2022-11-10T06:16:38;61187.25;;;-144.06;68.24
11017;BME280;54687;50.800;6.772;2022-11-10T06:19:05;61109.69;;;-144.06;68.45
11017;BME280;54687;50.800;6.772;2022-11-10T06:21:32;61172.56;;;-144.06;68.38
11017;BME280;54687;50.800;6.772;2022-11-10T06:23:58;61130.66;;;-144.06;68.50
11017;BME280;54687;50.800;6.772;2022-11-10T06:26:25;61115.97;;;-144.06;68.36
11017;BME280;54687;50.800;6.772;2022-11-10T06:28:52;61128.53;;;-144.06;68.33
11017;BME280;54687;50.800;6.772;2022-11-10T06:31:18;61149.50;;;-144.06;68.22
11017;BME280;54687;50.800;6.772;2022-11-10T06:33:46;61134.84;;;-144.06;68.23
11017;BME280;54687;50.800;6.772;2022-11-10T06:36:13;61132.75;;;-144.06;68.25
11017;BME280;54687;50.800;6.772;2022-11-10T06:38:40;61130.66;;;-144.06;68.01
11017;BME280;54687;50.800;6.772;2022-11-10T06:41:06;61095.00;;;-144.06;68.13
11017;BME280;54687;50.800;6.772;2022-11-10T06:43:33;61105.50;;;-144.06;67.91
11017;BME280;54687;50.800;6.772;2022-11-10T06:46:00;61136.94;;;-144.06;68.20
11017;BME280;54687;50.800;6.772;2022-11-10T06:48:27;61101.28;;;-144.06;68.30
11017;BME280;54687;50.800;6.772;2022-11-10T06:50:55;61128.53;;;-144.06;68.36
11017;BME280;54687;50.800;6.772;2022-11-10T06:53:27;61130.66;;;-144.06;68.20
11017;BME280;54687;50.800;6.772;2022-11-10T06:55:54;61074.03;;;-144.06;68.55
11017;BME280;54687;50.800;6.772;2022-11-10T06:58:21;61126.44;;;-144.06;68.33
11017;BME280;54687;50.800;6.772;2022-11-10T07:00:48;61130.66;;;-144.06;68.44
11017;BME280;54687;50.800;6.772;2022-11-10T07:03:16;61115.97;;;-144.06;68.42
11017;BME280;54687;50.800;6.772;2022-11-10T07:05:43;61134.84;;;-144.06;68.30
11017;BME280;54687;50.800;6.772;2022-11-10T07:08:12;61101.28;;;-144.06;68.04
11017;BME280;54687;50.800;6.772;2022-11-10T07:10:41;61082.44;;;-144.06;67.95
11017;BME280;54687;50.800;6.772;2022-11-10T07:13:09;61128.53;;;-144.06;67.75
11017;BME280;54687;50.800;6.772;2022-11-10T07:15:36;61120.16;;;-144.06;67.68
11017;BME280;54687;50.800;6.772;2022-11-10T07:18:03;61126.44;;;-144.06;67.57
11017;BME280;54687;50.800;6.772;2022-11-10T07:20:30;61134.84;;;-144.06;67.59
11017;BME280;54687;50.800;6.772;2022-11-10T07:22:58;61082.44;;;-144.06;67.46
11017;BME280;54687;50.800;6.772;2022-11-10T07:25:28;61139.03;;;-144.06;67.27
11017;BME280;54687;50.800;6.772;2022-11-10T07:27:57;61113.88;;;-144.06;67.39
11017;BME280;54687;50.800;6.772;2022-11-10T07:30:24;61145.31;;;-144.06;67.28
11017;BME280;54687;50.800;6.772;2022-11-10T07:32:58;61092.91;;;-144.06;67.27
11017;BME280;54687;50.800;6.772;2022-11-10T07:35:25;61097.09;;;-144.06;67.08
11017;BME280;54687;50.800;6.772;2022-11-10T07:37:52;61095.00;;;-144.06;67.13
11017;BME280;54687;50.800;6.772;2022-11-10T07:40:19;61126.44;;;-144.06;67.00
11017;BME280;54687;50.800;6.772;2022-11-10T07:42:47;61109.69;;;-144.06;66.64
11017;BME280;54687;50.800;6.772;2022-11-10T07:45:14;61082.44;;;-144.06;66.66
11017;BME280;54687;50.800;6.772;2022-11-10T07:47:41;61130.66;;;-144.06;66.73
11017;BME280;54687;50.800;6.772;2022-11-10T07:50:08;61084.53;;;-144.06;66.72
11017;BME280;54687;50.800;6.772;2022-11-10T07:52:35;61151.59;;;-144.06;66.68
11017;BME280;54687;50.800;6.772;2022-11-10T07:55:01;61088.72;;;-144.06;66.49
11017;BME280;54687;50.800;6.772;2022-11-10T07:57:28;61107.59;;;-144.06;66.21
11017;BME280;54687;50.800;6.772;2022-11-10T07:59:56;61078.25;;;-144.06;66.08
11017;BME280;54687;50.800;6.772;2022-11-10T08:02:23;61130.66;;;-144.06;66.37
11017;BME280;54687;50.800;6.772;2022-11-10T08:04:49;61076.13;;;-144.06;66.22
11017;BME280;54687;50.800;6.772;2022-11-10T08:07:16;61120.16;;;-144.06;66.14
11017;BME280;54687;50.800;6.772;2022-11-10T08:09:43;61082.44;;;-144.06;65.96
11017;BME280;54687;50.800;6.772;2022-11-10T08:12:10;61055.19;;;-144.06;65.97
11017;BME280;54687;50.800;6.772;2022-11-10T08:14:36;61092.91;;;-144.06;65.60
11017;BME280;54687;50.800;6.772;2022-11-10T08:17:04;61097.09;;;-144.06;65.59
11017;BME280;54687;50.800;6.772;2022-11-10T08:19:31;61105.50;;;-144.06;65.60
11017;BME280;54687;50.800;6.772;2022-11-10T08:21:57;61097.09;;;-144.06;65.23
11017;BME280;54687;50.800;6.772;2022-11-10T08:24:24;61111.78;;;-144.06;64.92
11017;BME280;54687;50.800;6.772;2022-11-10T08:26:50;61061.47;;;-144.06;64.90
11017;BME280;54687;50.800;6.772;2022-11-10T08:29:17;61067.75;;;-144.06;64.92
11017;BME280;54687;50.800;6.772;2022-11-10T08:31:44;61076.13;;;-144.06;64.30
11017;BME280;54687;50.800;6.772;2022-11-10T08:34:12;61076.13;;;-144.06;64.33
11017;BME280;54687;50.800;6.772;2022-11-10T08:36:42;61086.63;;;-144.06;64.06
11017;BME280;54687;50.800;6.772;2022-11-10T08:39:09;61059.38;;;-144.06;63.75
11017;BME280;54687;50.800;6.772;2022-11-10T08:41:36;61076.13;;;-144.06;63.52
11017;BME280;54687;50.800;6.772;2022-11-10T08:44:03;61038.41;;;-144.06;63.20
11017;BME280;54687;50.800;6.772;2022-11-10T08:46:30;61069.84;;;-144.06;62.67
11017;BME280;54687;50.800;6.772;2022-11-10T08:48:57;61076.13;;;-144.06;62.65
11017;BME280;54687;50.800;6.772;2022-11-10T08:51:25;61086.63;;;-144.06;62.29
11017;BME280;54687;50.800;6.772;2022-11-10T08:53:52;61059.38;;;-144.06;61.95
11017;BME280;54687;50.800;6.772;2022-11-10T08:56:18;61080.34;;;-144.06;61.74
11017;BME280;54687;50.800;6.772;2022-11-10T08:58:45;61061.47;;;-144.06;61.44
11017;BME280;54687;50.800;6.772;2022-11-10T09:01:11;61067.75;;;-144.06;61.43
11017;BME280;54687;50.800;6.772;2022-11-10T09:03:38;61071.94;;;-144.06;60.83
11017;BME280;54687;50.800;6.772;2022-11-10T09:06:05;61046.78;;;-144.06;60.54
11017;BME280;54687;50.800;6.772;2022-11-10T09:08:33;61048.88;;;-144.06;60.42
11017;BME280;54687;50.800;6.772;2022-11-10T09:11:01;61038.41;;;-144.06;60.28
11017;BME280;54687;50.800;6.772;2022-11-10T09:13:28;61017.44;;;-144.06;59.86
11017;BME280;54687;50.800;6.772;2022-11-10T09:15:58;61048.88;;;-144.06;59.93
11017;BME280;54687;50.800;6.772;2022-11-10T09:18:25;61030.03;;;-144.06;59.50
11017;BME280;54687;50.800;6.772;2022-11-10T09:20:52;61048.88;;;-144.06;58.82
11017;BME280;54687;50.800;6.772;2022-11-10T09:23:19;61017.44;;;-144.06;58.55
11017;BME280;54687;50.800;6.772;2022-11-10T09:25:51;61034.22;;;-144.06;58.43
11017;BME280;54687;50.800;6.772;2022-11-10T09:28:18;61004.88;;;-144.06;58.21
11017;BME280;54687;50.800;6.772;2022-11-10T09:30:46;61067.75;;;-144.06;57.49
11017;BME280;54687;50.800;6.772;2022-11-10T09:33:13;61038.41;;;-144.06;57.27
11017;BME280;54687;50.800;6.772;2022-11-10T09:35:39;61023.75;;;-144.06;56.93
11017;BME280;54687;50.800;6.772;2022-11-10T09:38:07;61063.56;;;-144.06;56.95
11017;BME280;54687;50.800;6.772;2022-11-10T09:40:43;61009.06;;;-144.06;56.70
11017;BME280;54687;50.800;6.772;2022-11-10T09:43:23;61032.13;;;-144.06;56.34
11017;BME280;54687;50.800;6.772;2022-11-10T09:45:54;61004.88;;;-144.06;56.28
11017;BME280;54687;50.800;6.772;2022-11-10T09:48:25;61004.88;;;-144.06;56.24
11017;BME280;54687;50.800;6.772;2022-11-10T09:50:54;61013.25;;;-144.06;55.83
11017;BME280;54687;50.800;6.772;2022-11-10T09:53:26;61034.22;;;-144.06;55.94
11017;BME280;54687;50.800;6.772;2022-11-10T09:55:57;61013.25;;;-144.06;55.17
11017;BME280;54687;50.800;6.772;2022-11-10T09:58:36;61048.88;;;-144.06;54.50
11017;BME280;54687;50.800;6.772;2022-11-10T10:01:11;60979.72;;;-144.06;54.46
11017;BME280;54687;50.800;6.772;2022-11-10T10:03:45;60998.59;;;-144.06;53.17
11017;BME280;54687;50.800;6.772;2022-11-10T10:06:14;60975.53;;;-144.06;51.95
11017;BME280;54687;50.800;6.772;2022-11-10T10:08:52;60977.63;;;-144.06;50.62
11017;BME280;54687;50.800;6.772;2022-11-10T10:11:28;60950.38;;;-144.06;50.82
11017;BME280;54687;50.800;6.772;2022-11-10T10:14:15;60996.50;;;-144.06;50.61
11017;BME280;54687;50.800;6.772;2022-11-10T10:16:51;60988.09;;;-144.06;50.79
11017;BME280;54687;50.800;6.772;2022-11-10T10:19:27;60937.78;;;-144.06;51.49
11017;BME280;54687;50.800;6.772;2022-11-10T10:22:14;60944.09;;;-144.06;50.94
11017;BME280;54687;50.800;6.772;2022-11-10T10:24:52;60979.72;;;-144.06;51.33
11017;BME280;54687;50.800;6.772;2022-11-10T10:27:21;61002.78;;;-144.06;51.65
11017;BME280;54687;50.800;6.772;2022-11-10T10:29:52;60948.28;;;-144.06;51.89
11017;BME280;54687;50.800;6.772;2022-11-10T10:32:19;60958.75;;;-144.06;51.61
11017;BME280;54687;50.800;6.772;2022-11-10T10:34:47;60979.72;;;-144.06;52.17
11017;BME280;54687;50.800;6.772;2022-11-10T10:37:22;60962.94;;;-144.06;51.53
11017;BME280;54687;50.800;6.772;2022-11-10T10:39:50;60962.94;;;-144.06;51.63
11017;BME280;54687;50.800;6.772;2022-11-10T10:42:27;60962.94;;;-144.06;51.16
11017;BME280;54687;50.800;6.772;2022-11-10T10:45:17;60965.03;;;-144.06;51.03
11017;BME280;54687;50.800;6.772;2022-11-10T10:47:44;60996.50;;;-144.06;51.01
11017;BME280;54687;50.800;6.772;2022-11-10T10:50:20;60962.94;;;-144.06;51.47
11017;BME280;54687;50.800;6.772;2022-11-10T10:53:05;60988.09;;;-144.06;51.09
11017;BME280;54687;50.800;6.772;2022-11-10T10:55:32;60933.59;;;-144.06;50.90
11017;BME280;54687;50.800;6.772;2022-11-10T10:58:01;60925.22;;;-144.06;51.11
11017;BME280;54687;50.800;6.772;2022-11-10T11:00:30;61009.06;;;-144.06;50.73
11017;BME280;54687;50.800;6.772;2022-11-10T11:03:02;60960.84;;;-144.06;50.75
11017;BME280;54687;50.800;6.772;2022-11-10T11:05:30;60952.47;;;-144.06;50.70
11017;BME280;54687;50.800;6.772;2022-11-10T11:07:58;60937.78;;;-144.06;50.63
11017;BME280;54687;50.800;6.772;2022-11-10T11:10:28;60983.91;;;-144.06;50.89
11017;BME280;54687;50.800;6.772;2022-11-10T11:13:13;60992.28;;;-144.06;50.61
11017;BME280;54687;50.800;6.772;2022-11-10T11:15:41;60916.84;;;-144.06;50.55
11017;BME280;54687;50.800;6.772;2022-11-10T11:18:22;60986.00;;;-144.06;50.48
11017;BME280;54687;50.800;6.772;2022-11-10T11:20:56;60979.72;;;-144.06;50.65
11017;BME280;54687;50.800;6.772;2022-11-10T11:23:36;60962.94;;;-144.06;50.75
11017;BME280;54687;50.800;6.772;2022-11-10T11:26:11;61009.06;;;-144.06;50.42
11017;BME280;54687;50.800;6.772;2022-11-10T11:28:47;60941.97;;;-144.06;50.21
11017;BME280;54687;50.800;6.772;2022-11-10T11:31:21;60939.88;;;-144.06;50.27
11017;BME280;54687;50.800;6.772;2022-11-10T11:33:59;60954.56;;;-144.06;49.79
11017;BME280;54687;50.800;6.772;2022-11-10T11:36:34;60933.59;;;-144.06;50.22
11017;BME280;54687;50.800;6.772;2022-11-10T11:39:08;60979.72;;;-144.06;50.09
11017;BME280;54687;50.800;6.772;2022-11-10T11:41:41;60981.81;;;-144.06;49.87
11017;BME280;54687;50.800;6.772;2022-11-10T11:44:25;60946.19;;;-144.06;49.37
11017;BME280;54687;50.800;6.772;2022-11-10T11:47:01;60912.63;;;-144.06;49.19
11017;BME280;54687;50.800;6.772;2022-11-10T11:49:47;60921.03;;;-144.06;48.93
11017;BME280;54687;50.800;6.772;2022-11-10T11:52:24;60941.97;;;-144.06;48.68
11017;BME280;54687;50.800;6.772;2022-11-10T11:55:05;60941.97;;;-144.06;48.61
11017;BME280;54687;50.800;6.772;2022-11-10T11:57:44;60950.38;;;-144.06;48.26
11017;BME280;54687;50.800;6.772;2022-11-10T12:00:18;60946.19;;;-144.06;48.24
11017;BME280;54687;50.800;6.772;2022-11-10T12:03:01;60910.53;;;-144.06;47.61
11017;BME280;54687;50.800;6.772;2022-11-10T12:05:38;60950.38;;;-144.06;47.53
11017;BME280;54687;50.800;6.772;2022-11-10T12:08:16;60916.84;;;-144.06;47.69
11017;BME280;54687;50.800;6.772;2022-11-10T12:10:53;60933.59;;;-144.06;47.72
11017;BME280;54687;50.800;6.772;2022-11-10T12:13:36;60935.69;;;-144.06;47.33
11017;BME280;54687;50.800;6.772;2022-11-10T12:16:09;60921.03;;;-144.06;47.24
11017;BME280;54687;50.800;6.772;2022-11-10T12:18:45;60906.34;;;-144.06;47.36
11017;BME280;54687;50.800;6.772;2022-11-10T12:21:22;60918.94;;;-144.06;47.48
11017;BME280;54687;50.800;6.772;2022-11-10T12:24:13;60983.91;;;-144.06;47.01
11017;BME280;54687;50.800;6.772;2022-11-10T12:26:49;60929.41;;;-144.06;47.46
11017;BME280;54687;50.800;6.772;2022-11-10T12:29:25;60958.75;;;-144.06;47.33
11017;BME280;54687;50.800;6.772;2022-11-10T12:31:56;60916.84;;;-144.06;47.43
11017;BME280;54687;50.800;6.772;2022-11-10T12:34:32;60916.84;;;-144.06;46.45
11017;BME280;54687;50.800;6.772;2022-11-10T12:37:03;60925.22;;;-144.06;46.52
11017;BME280;54687;50.800;6.772;2022-11-10T12:39:40;60904.25;;;-144.06;47.17
11017;BME280;54687;50.800;6.772;2022-11-10T12:42:13;60937.78;;;-144.06;47.44
11017;BME280;54687;50.800;6.772;2022-11-10T12:44:53;60925.22;;;-144.06;46.82
11017;BME280;54687;50.800;6.772;2022-11-10T12:47:21;60956.66;;;-144.06;47.41
11017;BME280;54687;50.800;6.772;2022-11-10T12:49:57;60916.84;;;-144.06;47.24
11017;BME280;54687;50.800;6.772;2022-11-10T12:52:32;60929.41;;;-144.06;47.04